Time;durP1;ratioP1;P1;durP2;ratioP2;P2;SDS_P1;SDS_P2;PMS_P1;PMS_P2;Temp;Humidity;BMP_temperature;BMP_pressure;BME280_temperature;BME280_humidity;BME280_pressure;Samples;Min_cycle;Max_cycle;Signal;HPM_P1;HPM_P2
2023/07/05 00:02:08;;;;;;;0.10;0.10;;;12.90;59.00;;;;;;4991527;28;20217;-52
2023/07/05 00:04:41;;;;;;;0.10;0.10;;;12.90;59.00;;;;;;4991753;28;20214;-55
2023/07/05 00:07:11;;;;;;;0.10;0.10;;;12.90;59.10;;;;;;5000301;28;20200;-52
2023/07/05 00:09:42;;;;;;;0.10;0.10;;;12.90;59.20;;;;;;5011552;28;20562;-53
2023/07/05 00:12:13;;;;;;;0.10;0.10;;;13.00;59.30;;;;;;5010799;28;20213;-53
2023/07/05 00:14:43;;;;;;;0.10;0.10;;;13.00;59.30;;;;;;4991868;28;20287;-55
2023/07/05 00:17:14;;;;;;;0.10;0.10;;;13.00;59.40;;;;;;4992037;28;20294;-53
2023/07/05 00:19:51;;;;;;;0.10;0.10;;;13.10;59.40;;;;;;4991916;28;20693;-52
2023/07/05 00:22:22;;;;;;;0.10;0.10;;;13.10;59.30;;;;;;4991731;28;20240;-50
2023/07/05 00:24:55;;;;;;;0.10;0.10;;;13.10;59.90;;;;;;4987400;28;20194;-57
2023/07/05 00:27:26;;;;;;;0.10;0.10;;;13.20;60.30;;;;;;4991803;28;20202;-55
2023/07/05 00:29:57;;;;;;;0.10;0.10;;;13.20;60.10;;;;;;4991032;28;20190;-53
2023/07/05 00:32:27;;;;;;;0.10;0.10;;;13.20;60.00;;;;;;4991363;28;20261;-57
2023/07/05 00:35:00;;;;;;;0.10;0.10;;;13.30;59.90;;;;;;4990818;28;20209;-54
2023/07/05 00:37:30;;;;;;;0.10;0.10;;;13.30;59.90;;;;;;4991253;28;20202;-57
2023/07/05 00:40:01;;;;;;;0.10;0.10;;;13.40;60.00;;;;;;4990727;28;20206;-57
2023/07/05 00:42:32;;;;;;;0.10;0.10;;;13.40;59.90;;;;;;5000010;28;20232;-55
2023/07/05 00:45:37;;;;;;;0.10;0.10;;;13.40;59.90;;;;;;4994299;28;20228;-56
2023/07/05 00:48:08;;;;;;;0.10;0.10;;;13.50;59.90;;;;;;4995070;28;20236;-57
2023/07/05 00:50:44;;;;;;;0.10;0.10;;;13.50;59.80;;;;;;4994915;28;20670;-57
2023/07/05 00:53:15;;;;;;;0.10;0.10;;;13.50;59.90;;;;;;4993525;28;20791;-57
2023/07/05 00:55:50;;;;;;;0.10;0.10;;;13.60;59.90;;;;;;4993986;28;20590;-57
2023/07/05 00:58:23;;;;;;;0.10;0.10;;;13.60;59.80;;;;;;4995436;28;20201;-56
2023/07/05 01:00:54;;;;;;;0.10;0.10;;;13.60;59.80;;;;;;4994771;28;20210;-56
2023/07/05 01:03:27;;;;;;;0.10;0.10;;;13.60;59.70;;;;;;4993927;28;20244;-55
2023/07/05 01:06:02;;;;;;;0.20;0.20;;;13.70;59.70;;;;;;4994563;28;20201;-53
2023/07/05 01:08:33;;;;;;;0.10;0.10;;;13.70;59.60;;;;;;4994675;28;20201;-58
2023/07/05 01:11:12;;;;;;;0.10;0.10;;;13.70;59.60;;;;;;4994299;28;20205;-57
2023/07/05 01:13:51;;;;;;;0.10;0.10;;;13.70;59.60;;;;;;4994107;28;20209;-50
2023/07/05 01:16:31;;;;;;;0.10;0.10;;;13.80;59.90;;;;;;4993690;28;20232;-54
2023/07/05 01:19:18;;;;;;;0.13;0.13;;;13.80;60.50;;;;;;4993749;28;20650;-58
2023/07/05 01:21:56;;;;;;;0.10;0.10;;;13.90;60.90;;;;;;4994451;28;20221;-58
2023/07/05 01:24:50;;;;;;;0.10;0.10;;;13.90;60.70;;;;;;4993605;28;20193;-57
2023/07/05 01:27:40;;;;;;;0.10;0.10;;;14.00;60.50;;;;;;4994055;28;20200;-53
2023/07/05 01:30:56;;;;;;;0.10;0.10;;;14.00;60.30;;;;;;4993785;28;20198;-58
2023/07/05 01:33:35;;;;;;;0.10;0.10;;;14.10;60.20;;;;;;4987427;28;20319;-57
2023/07/05 01:36:06;;;;;;;0.10;0.10;;;14.10;60.00;;;;;;4993509;28;20239;-54
2023/07/05 01:38:37;;;;;;;0.10;0.10;;;14.10;60.00;;;;;;4993199;28;20202;-55
2023/07/05 01:41:09;;;;;;;0.10;0.10;;;14.20;60.00;;;;;;5001031;28;20195;-54
2023/07/05 01:43:42;;;;;;;0.10;0.10;;;14.10;59.90;;;;;;5000577;28;20312;-55
2023/07/05 01:46:24;;;;;;;0.10;0.10;;;14.20;59.90;;;;;;4993453;28;20197;-55
2023/07/05 01:49:10;;;;;;;0.10;0.10;;;14.20;59.90;;;;;;4993279;28;20221;-54
2023/07/05 01:51:48;;;;;;;0.10;0.10;;;14.20;59.80;;;;;;4993238;28;20623;-57
2023/07/05 01:54:23;;;;;;;0.10;0.10;;;14.30;59.80;;;;;;4992726;28;20666;-57
2023/07/05 01:57:00;;;;;;;0.13;0.13;;;14.30;59.80;;;;;;4993365;28;20723;-52
2023/07/05 01:59:36;;;;;;;0.10;0.10;;;14.30;59.80;;;;;;4993346;28;20712;-56
2023/07/05 02:02:10;;;;;;;0.10;0.10;;;14.30;59.70;;;;;;4993769;28;20260;-55
2023/07/05 02:04:42;;;;;;;0.10;0.10;;;14.30;59.70;;;;;;4992897;28;20202;-55
2023/07/05 02:07:13;;;;;;;0.10;0.10;;;14.40;59.70;;;;;;4993393;28;20194;-53
2023/07/05 02:09:44;;;;;;;0.10;0.10;;;14.40;59.70;;;;;;5001033;28;20201;-55
2023/07/05 02:12:15;;;;;;;0.10;0.10;;;14.40;59.60;;;;;;4993094;28;20217;-56
2023/07/05 02:14:46;;;;;;;0.10;0.10;;;14.40;59.60;;;;;;4992577;28;20221;-53
2023/07/05 02:17:17;;;;;;;0.10;0.10;;;14.40;59.60;;;;;;4993407;28;20625;-58
2023/07/05 02:19:49;;;;;;;0.10;0.10;;;14.40;59.50;;;;;;4992250;28;20204;-57
2023/07/05 02:22:20;;;;;;;0.10;0.10;;;14.50;59.60;;;;;;4993087;28;20711;-55
2023/07/05 02:24:54;;;;;;;0.10;0.10;;;14.50;59.50;;;;;;4992179;28;20896;-51
2023/07/05 02:27:25;;;;;;;0.10;0.10;;;14.50;59.40;;;;;;4992776;28;20213;-57
2023/07/05 02:29:55;;;;;;;0.10;0.10;;;14.50;59.40;;;;;;4992559;28;20572;-51
2023/07/05 02:32:26;;;;;;;0.05;0.05;;;14.50;59.40;;;;;;4993245;28;20217;-54
2023/07/05 02:35:03;;;;;;;0.10;0.10;;;14.60;59.40;;;;;;4993385;28;20200;-58
2023/07/05 02:37:35;;;;;;;0.10;0.10;;;14.60;59.40;;;;;;4993158;28;20626;-50
2023/07/05 02:40:07;;;;;;;0.10;0.10;;;14.60;59.40;;;;;;4992842;28;20256;-53
2023/07/05 02:42:38;;;;;;;0.10;0.10;;;14.70;59.50;;;;;;4992833;28;20229;-53
2023/07/05 02:45:09;;;;;;;0.10;0.10;;;14.70;59.40;;;;;;4993021;28;20190;-49
2023/07/05 02:47:39;;;;;;;0.10;0.10;;;14.70;59.40;;;;;;4992989;28;20268;-55
2023/07/05 02:50:14;;;;;;;0.10;0.10;;;14.70;59.40;;;;;;4993079;28;20205;-52
2023/07/05 02:52:45;;;;;;;0.10;0.10;;;14.70;59.40;;;;;;4992778;28;20303;-56
2023/07/05 02:55:16;;;;;;;0.17;0.17;;;14.80;59.50;;;;;;4989187;28;20197;-56
2023/07/05 02:57:46;;;;;;;0.10;0.10;;;14.80;59.50;;;;;;4992655;28;20201;-58
2023/07/05 03:00:20;;;;;;;0.10;0.10;;;14.80;59.40;;;;;;4992114;28;20654;-53
2023/07/05 03:02:50;;;;;;;0.10;0.10;;;14.90;59.50;;;;;;4991647;28;20217;-58
2023/07/05 03:05:23;;;;;;;0.10;0.10;;;14.90;59.40;;;;;;4972986;28;20201;-58
2023/07/05 03:07:54;;;;;;;0.10;0.10;;;14.90;59.40;;;;;;4973222;28;20194;-58
2023/07/05 03:10:25;;;;;;;0.00;0.00;;;14.90;59.40;;;;;;4972259;28;20205;-58
2023/07/05 03:12:55;;;;;;;0.10;0.10;;;14.90;59.40;;;;;;4986381;28;20228;-58
2023/07/05 03:15:27;;;;;;;0.10;0.10;;;15.00;59.40;;;;;;4991505;28;20196;-58
2023/07/05 03:17:57;;;;;;;0.05;0.05;;;15.00;59.40;;;;;;4991850;28;20224;-55
2023/07/05 03:20:30;;;;;;;0.00;0.00;;;15.00;59.40;;;;;;4972404;28;20194;-56
2023/07/05 03:23:00;;;;;;;0.10;0.10;;;15.10;59.40;;;;;;4972645;28;20225;-55
2023/07/05 03:25:34;;;;;;;0.10;0.10;;;15.10;59.40;;;;;;4972801;28;20248;-58
2023/07/05 03:28:05;;;;;;;0.10;0.10;;;15.10;59.40;;;;;;4972210;28;20209;-57
2023/07/05 03:30:38;;;;;;;0.10;0.10;;;15.10;59.30;;;;;;4972223;28;20449;-56
2023/07/05 03:33:09;;;;;;;0.10;0.10;;;15.10;59.40;;;;;;4972335;28;20218;-58
2023/07/05 03:35:42;;;;;;;0.10;0.10;;;15.20;59.40;;;;;;4993990;28;20200;-52
2023/07/05 03:38:12;;;;;;;0.00;0.00;;;15.20;59.40;;;;;;4990963;28;20201;-57
2023/07/05 03:40:43;;;;;;;0.08;0.08;;;15.20;59.30;;;;;;4990157;28;20696;-55
2023/07/05 03:43:13;;;;;;;0.10;0.10;;;15.20;59.30;;;;;;4991047;28;20228;-53
2023/07/05 03:45:44;;;;;;;0.10;0.10;;;15.30;59.40;;;;;;4991003;28;20243;-57
2023/07/05 03:48:15;;;;;;;0.10;0.10;;;15.30;59.20;;;;;;4991915;28;20605;-58
2023/07/05 03:50:47;;;;;;;0.10;0.10;;;15.30;59.20;;;;;;4991895;28;20737;-53
2023/07/05 03:53:18;;;;;;;0.10;0.10;;;15.40;59.20;;;;;;4990868;28;20217;-53
2023/07/05 03:55:48;;;;;;;0.20;0.20;;;15.40;59.20;;;;;;4991096;28;20194;-51
2023/07/05 03:58:19;;;;;;;0.10;0.10;;;15.40;59.10;;;;;;4989473;28;20194;-54
2023/07/05 04:00:50;;;;;;;0.10;0.10;;;15.40;59.10;;;;;;5007985;28;20204;-56
2023/07/05 04:03:20;;;;;;;0.10;0.10;;;15.50;59.20;;;;;;5010446;28;20228;-59
2023/07/05 04:05:53;;;;;;;0.10;0.10;;;15.50;59.10;;;;;;4991137;28;20214;-57
2023/07/05 04:08:23;;;;;;;0.05;0.05;;;15.50;59.00;;;;;;4991408;28;20223;-54
2023/07/05 04:10:54;;;;;;;0.10;0.10;;;15.50;59.00;;;;;;4991240;28;20205;-54
2023/07/05 04:13:25;;;;;;;0.10;0.10;;;15.60;59.00;;;;;;4991066;28;20669;-55
2023/07/05 04:16:03;;;;;;;0.10;0.10;;;15.60;59.00;;;;;;4992445;28;20201;-52
2023/07/05 04:18:35;;;;;;;0.10;0.10;;;15.60;58.90;;;;;;4994951;28;20606;-57
2023/07/05 04:21:08;;;;;;;0.10;0.10;;;15.70;58.90;;;;;;4994563;28;20563;-55
2023/07/05 04:23:39;;;;;;;0.08;0.08;;;15.70;58.90;;;;;;4995363;28;20335;-54
2023/07/05 04:26:11;;;;;;;0.10;0.10;;;15.70;58.80;;;;;;4994581;28;20205;-57
2023/07/05 04:28:43;;;;;;;0.10;0.10;;;15.70;58.70;;;;;;4994682;28;20280;-53
2023/07/05 04:31:17;;;;;;;0.03;0.03;;;15.70;58.70;;;;;;4994792;28;20205;-56
2023/07/05 04:33:48;;;;;;;0.00;0.00;;;15.80;58.60;;;;;;4994784;28;20685;-56
2023/07/05 04:36:21;;;;;;;0.10;0.10;;;15.80;58.60;;;;;;4994689;28;20232;-56
2023/07/05 04:38:51;;;;;;;0.10;0.10;;;15.80;58.50;;;;;;4994522;28;20209;-54
2023/07/05 04:41:22;;;;;;;0.10;0.10;;;15.80;58.50;;;;;;4994684;28;20212;-58
2023/07/05 04:43:53;;;;;;;0.10;0.10;;;15.80;58.50;;;;;;4994461;28;20216;-58
2023/07/05 04:46:24;;;;;;;0.10;0.10;;;15.80;58.40;;;;;;4994196;28;20212;-57
2023/07/05 04:48:54;;;;;;;0.00;0.00;;;15.80;58.40;;;;;;4992166;28;20202;-54
2023/07/05 04:51:27;;;;;;;0.03;0.03;;;15.80;58.40;;;;;;4994600;28;20198;-55
2023/07/05 04:53:58;;;;;;;0.10;0.10;;;15.80;58.40;;;;;;4994611;28;20201;-56
2023/07/05 04:56:28;;;;;;;0.10;0.10;;;15.80;58.30;;;;;;4995339;28;20221;-56
2023/07/05 04:59:00;;;;;;;0.10;0.10;;;15.80;58.30;;;;;;4994877;28;20217;-57
2023/07/05 05:01:30;;;;;;;0.10;0.10;;;15.80;58.20;;;;;;4995195;28;20209;-58
2023/07/05 05:04:01;;;;;;;0.10;0.10;;;15.80;58.30;;;;;;4994418;28;20204;-59
2023/07/05 05:06:33;;;;;;;0.10;0.10;;;15.80;58.20;;;;;;4994338;28;20212;-57
2023/07/05 05:09:04;;;;;;;0.10;0.10;;;15.80;58.20;;;;;;4994631;28;20205;-56
2023/07/05 05:11:35;;;;;;;0.10;0.10;;;15.80;58.20;;;;;;4994433;28;20207;-59
2023/07/05 05:14:05;;;;;;;0.10;0.10;;;15.80;58.10;;;;;;4994289;28;20201;-59
2023/07/05 05:16:36;;;;;;;0.10;0.10;;;15.80;58.00;;;;;;4994407;28;20225;-58
2023/07/05 05:19:07;;;;;;;0.10;0.10;;;15.80;58.00;;;;;;4994212;28;20250;-59
2023/07/05 05:21:39;;;;;;;0.00;0.00;;;15.80;58.00;;;;;;4994371;28;20553;-58
2023/07/05 05:24:10;;;;;;;0.00;0.00;;;15.80;58.00;;;;;;4994588;28;20194;-59
2023/07/05 05:26:40;;;;;;;0.00;0.00;;;15.80;57.90;;;;;;4993949;28;20271;-59
2023/07/05 05:29:11;;;;;;;0.00;0.00;;;15.80;57.90;;;;;;4994095;28;20209;-59
2023/07/05 05:31:42;;;;;;;0.10;0.10;;;15.70;57.80;;;;;;4991918;28;20586;-59
2023/07/05 05:34:12;;;;;;;0.10;0.10;;;15.70;57.80;;;;;;4974541;28;20198;-58
2023/07/05 05:36:45;;;;;;;0.10;0.10;;;15.70;57.80;;;;;;4995112;28;20240;-58
2023/07/05 05:39:16;;;;;;;0.03;0.03;;;15.70;57.80;;;;;;4993989;28;20229;-57
2023/07/05 05:41:46;;;;;;;0.00;0.00;;;15.70;57.80;;;;;;4996814;28;20221;-59
2023/07/05 05:44:17;;;;;;;0.10;0.10;;;15.70;57.80;;;;;;4993955;28;20197;-59
2023/07/05 05:46:48;;;;;;;0.10;0.10;;;15.70;57.80;;;;;;4993398;28;20198;-57
2023/07/05 05:49:19;;;;;;;0.10;0.10;;;15.70;57.80;;;;;;4992893;28;20201;-55
2023/07/05 05:51:51;;;;;;;0.10;0.10;;;15.70;57.80;;;;;;4991558;28;20221;-57
2023/07/05 05:54:22;;;;;;;0.03;0.03;;;15.70;57.80;;;;;;4993296;28;20209;-59
2023/07/05 05:56:52;;;;;;;0.10;0.10;;;15.70;57.80;;;;;;4992194;28;20213;-57
2023/07/05 05:59:23;;;;;;;0.00;0.00;;;15.70;57.70;;;;;;4992588;28;20197;-59
2023/07/05 06:01:54;;;;;;;0.00;0.00;;;15.70;57.70;;;;;;4993296;28;20229;-56
2023/07/05 06:04:24;;;;;;;0.10;0.10;;;15.60;57.70;;;;;;4993400;28;20216;-59
2023/07/05 06:06:57;;;;;;;0.10;0.10;;;15.60;57.80;;;;;;4992455;28;20199;-58
2023/07/05 06:09:27;;;;;;;0.10;0.10;;;15.60;57.80;;;;;;5010592;28;20227;-59
2023/07/05 06:11:58;;;;;;;0.10;0.10;;;15.60;57.80;;;;;;4993015;28;20694;-57
2023/07/05 06:14:29;;;;;;;0.10;0.10;;;15.60;57.70;;;;;;4992891;28;20642;-57
2023/07/05 06:16:59;;;;;;;0.00;0.00;;;15.60;57.70;;;;;;4993063;28;20240;-58
2023/07/05 06:19:30;;;;;;;0.05;0.05;;;15.60;57.70;;;;;;4992355;28;20200;-58
2023/07/05 06:22:02;;;;;;;0.08;0.08;;;15.50;57.60;;;;;;4992364;28;20222;-55
2023/07/05 06:24:33;;;;;;;0.10;0.10;;;15.50;57.60;;;;;;4994064;28;20205;-49
2023/07/05 06:27:04;;;;;;;0.10;0.10;;;15.50;57.60;;;;;;4993420;28;20193;-53
2023/07/05 06:29:35;;;;;;;0.10;0.10;;;15.50;57.60;;;;;;4990146;28;20658;-56
2023/07/05 06:32:05;;;;;;;0.10;0.10;;;15.50;57.70;;;;;;4992545;28;20712;-54
2023/07/05 06:34:36;;;;;;;0.10;0.10;;;15.50;57.70;;;;;;4992232;28;20189;-54
2023/07/05 06:37:09;;;;;;;0.10;0.10;;;15.50;57.70;;;;;;4992864;28;20694;-51
2023/07/05 06:39:40;;;;;;;0.10;0.10;;;15.50;57.70;;;;;;4992266;28;20201;-50
2023/07/05 06:42:11;;;;;;;0.10;0.10;;;15.40;57.70;;;;;;4992242;28;20593;-52
2023/07/05 06:44:42;;;;;;;0.10;0.10;;;15.40;57.60;;;;;;4992804;28;20922;-55
2023/07/05 06:47:12;;;;;;;0.10;0.10;;;15.40;57.70;;;;;;4991787;28;20268;-53
2023/07/05 06:49:43;;;;;;;0.10;0.10;;;15.40;57.60;;;;;;4991586;28;20553;-56
2023/07/05 06:52:15;;;;;;;0.10;0.10;;;15.40;57.60;;;;;;4991924;28;20213;-51
2023/07/05 06:54:46;;;;;;;0.10;0.10;;;15.40;57.60;;;;;;4992056;28;20201;-49
2023/07/05 06:57:17;;;;;;;0.08;0.08;;;15.30;57.60;;;;;;4992172;28;20232;-50
2023/07/05 06:59:48;;;;;;;0.10;0.10;;;15.30;57.50;;;;;;4989897;28;20205;-51
2023/07/05 07:02:18;;;;;;;0.00;0.00;;;15.30;57.60;;;;;;4992503;28;20620;-50
2023/07/05 07:04:49;;;;;;;0.10;0.10;;;15.30;57.50;;;;;;4990804;28;20204;-51
2023/07/05 07:07:21;;;;;;;0.10;0.10;;;15.30;57.50;;;;;;4992243;28;20194;-53
2023/07/05 07:09:52;;;;;;;0.10;0.10;;;15.30;57.50;;;;;;4991015;28;20197;-52
2023/07/05 07:12:23;;;;;;;0.10;0.10;;;15.30;57.40;;;;;;4991916;28;20275;-52
2023/07/05 07:14:53;;;;;;;0.10;0.10;;;15.30;57.40;;;;;;4991921;28;20201;-53
2023/07/05 07:17:24;;;;;;;0.08;0.08;;;15.20;57.40;;;;;;4991554;28;20225;-47
2023/07/05 07:19:55;;;;;;;0.10;0.10;;;15.20;57.50;;;;;;4991826;28;20205;-49
2023/07/05 07:22:27;;;;;;;0.00;0.00;;;15.20;57.40;;;;;;4991006;28;20578;-58
2023/07/05 07:24:58;;;;;;;0.10;0.10;;;15.20;57.40;;;;;;4992459;28;20200;-53
2023/07/05 07:27:29;;;;;;;0.03;0.03;;;15.20;57.50;;;;;;4992150;28;20205;-51
2023/07/05 07:29:59;;;;;;;0.10;0.10;;;15.20;57.50;;;;;;4992172;28;20209;-57
2023/07/05 07:32:30;;;;;;;0.10;0.10;;;15.20;57.50;;;;;;4991972;28;20224;-57
2023/07/05 07:35:01;;;;;;;0.10;0.10;;;15.10;57.40;;;;;;4991461;28;20201;-56
2023/07/05 07:37:34;;;;;;;0.10;0.10;;;15.10;57.40;;;;;;4991582;28;20221;-53
2023/07/05 07:40:06;;;;;;;0.10;0.10;;;15.10;57.40;;;;;;4991390;28;20208;-57
2023/07/05 07:42:37;;;;;;;0.10;0.10;;;15.10;57.30;;;;;;4992768;28;20903;-57
2023/07/05 07:45:08;;;;;;;0.10;0.10;;;15.10;57.30;;;;;;4991157;28;20197;-51
2023/07/05 07:47:39;;;;;;;0.10;0.10;;;15.10;57.30;;;;;;4988979;28;20193;-49
2023/07/05 07:50:13;;;;;;;0.10;0.10;;;15.00;57.20;;;;;;4991060;28;20190;-55
2023/07/05 07:52:45;;;;;;;0.10;0.10;;;15.10;57.30;;;;;;4993866;28;20592;-52
2023/07/05 07:55:16;;;;;;;0.10;0.10;;;15.10;57.30;;;;;;4995101;28;20212;-60
2023/07/05 07:57:47;;;;;;;0.10;0.10;;;15.00;57.30;;;;;;4992650;28;20217;-52
2023/07/05 08:00:18;;;;;;;0.10;0.10;;;15.00;57.30;;;;;;5009441;22;20204;-45
2023/07/05 08:02:49;;;;;;;0.10;0.10;;;14.90;57.30;;;;;;5003459;28;20212;-49
2023/07/05 08:05:22;;;;;;;0.00;0.00;;;14.90;57.30;;;;;;5012363;28;20219;-52
2023/07/05 08:07:55;;;;;;;0.10;0.10;;;14.90;57.30;;;;;;5015529;28;20193;-49
2023/07/05 08:10:26;;;;;;;0.10;0.10;;;14.90;57.40;;;;;;5014903;28;20200;-50
2023/07/05 08:12:57;;;;;;;0.00;0.00;;;14.90;57.40;;;;;;5006730;28;20219;-47
2023/07/05 08:15:37;;;;;;;0.10;0.10;;;14.90;57.30;;;;;;5015405;28;20196;-49
2023/07/05 08:18:08;;;;;;;0.10;0.10;;;14.90;57.40;;;;;;5015317;28;20228;-47
2023/07/05 08:20:38;;;;;;;0.10;0.10;;;14.90;57.30;;;;;;5014477;28;20197;-48
2023/07/05 08:23:11;;;;;;;0.10;0.10;;;14.80;57.30;;;;;;5013016;28;20213;-48
2023/07/05 08:25:44;;;;;;;0.10;0.10;;;14.80;57.30;;;;;;5015107;28;20252;-48
2023/07/05 08:28:17;;;;;;;0.10;0.10;;;14.80;57.20;;;;;;5014991;28;20236;-48
2023/07/05 08:30:53;;;;;;;0.10;0.10;;;14.80;57.20;;;;;;5014923;28;20223;-50
2023/07/05 08:33:24;;;;;;;0.10;0.10;;;14.80;57.30;;;;;;5014664;28;20217;-48
2023/07/05 08:36:12;;;;;;;0.00;0.00;;;14.80;57.20;;;;;;5015048;28;20197;-50
2023/07/05 08:38:45;;;;;;;0.10;0.10;;;14.80;57.30;;;;;;5014807;28;20232;-48
2023/07/05 08:41:23;;;;;;;0.10;0.10;;;14.80;57.20;;;;;;5011314;28;20672;-50
2023/07/05 08:43:59;;;;;;;0.10;0.10;;;14.70;57.20;;;;;;5014716;28;20201;-51
2023/07/05 08:46:32;;;;;;;0.10;0.10;;;14.70;57.20;;;;;;5014907;28;20204;-50
2023/07/05 08:49:06;;;;;;;0.20;0.20;;;14.70;57.20;;;;;;5014183;28;20573;-46
2023/07/05 08:51:38;;;;;;;0.10;0.10;;;14.70;57.30;;;;;;5008688;28;20196;-49
2023/07/05 08:54:12;;;;;;;0.10;0.10;;;14.70;57.30;;;;;;5014828;28;20193;-44
2023/07/05 08:56:47;;;;;;;0.10;0.10;;;14.70;57.30;;;;;;5014625;28;20200;-48
2023/07/05 08:59:25;;;;;;;0.10;0.10;;;14.70;57.30;;;;;;5014090;28;20228;-46
2023/07/05 09:01:59;;;;;;;0.10;0.10;;;14.70;57.30;;;;;;5014142;28;20232;-50
2023/07/05 09:04:32;;;;;;;0.10;0.10;;;14.70;57.20;;;;;;5011882;28;20653;-51
2023/07/05 09:07:11;;;;;;;0.10;0.10;;;14.70;57.20;;;;;;5013636;28;20720;-50
2023/07/05 09:09:56;;;;;;;0.15;0.15;;;14.60;57.20;;;;;;5013610;28;20569;-52
2023/07/05 09:12:34;;;;;;;0.10;0.10;;;14.60;57.20;;;;;;5013821;28;20241;-51
2023/07/05 09:15:23;;;;;;;0.10;0.10;;;14.60;57.10;;;;;;5013489;28;20204;-51
2023/07/05 09:17:56;;;;;;;0.10;0.10;;;14.60;57.20;;;;;;5013363;28;20270;-50
2023/07/05 09:20:50;;;;;;;0.10;0.10;;;14.60;57.20;;;;;;5013772;28;20657;-51
2023/07/05 09:23:26;;;;;;;0.10;0.10;;;14.60;57.20;;;;;;5013905;28;20230;-51
2023/07/05 09:26:04;;;;;;;0.00;0.00;;;14.60;57.20;;;;;;5014030;28;20657;-48
2023/07/05 09:28:40;;;;;;;0.10;0.10;;;14.50;57.20;;;;;;5013726;28;20196;-49
2023/07/05 09:31:16;;;;;;;0.10;0.10;;;14.50;57.20;;;;;;5013636;28;20200;-45
2023/07/05 09:33:51;;;;;;;0.10;0.10;;;14.60;57.30;;;;;;5013442;28;20216;-50
2023/07/05 09:36:25;;;;;;;0.10;0.10;;;14.50;57.30;;;;;;5013443;28;20258;-50
2023/07/05 09:39:00;;;;;;;0.10;0.10;;;14.50;57.30;;;;;;5014032;28;20232;-49
2023/07/05 09:41:42;;;;;;;0.10;0.10;;;14.50;57.30;;;;;;5014023;28;20729;-50
2023/07/05 09:44:13;;;;;;;0.10;0.10;;;14.50;57.30;;;;;;5012549;28;20563;-48
2023/07/05 09:46:45;;;;;;;0.10;0.10;;;14.50;57.30;;;;;;5012774;28;20208;-51
2023/07/05 09:49:25;;;;;;;0.10;0.10;;;14.50;57.20;;;;;;5013557;28;20192;-51
2023/07/05 09:51:56;;;;;;;0.10;0.10;;;14.50;57.20;;;;;;5013838;28;20649;-49
2023/07/05 09:54:30;;;;;;;0.10;0.10;;;14.50;57.20;;;;;;5013492;28;20251;-52
2023/07/05 09:57:09;;;;;;;0.10;0.10;;;14.50;57.20;;;;;;5013662;28;20192;-50
2023/07/05 09:59:40;;;;;;;0.20;0.20;;;14.50;57.20;;;;;;5013612;28;20599;-53
2023/07/05 10:02:23;;;;;;;0.10;0.10;;;14.50;57.20;;;;;;5007503;28;20259;-47
2023/07/05 10:04:56;;;;;;;0.10;0.10;;;14.50;57.20;;;;;;5004796;28;20657;-50
2023/07/05 10:07:30;;;;;;;0.05;0.05;;;14.50;57.30;;;;;;5012145;28;20652;-52
2023/07/05 10:10:03;;;;;;;0.10;0.10;;;14.50;57.30;;;;;;4992905;28;20197;-46
2023/07/05 10:12:39;;;;;;;0.03;0.03;;;14.40;57.30;;;;;;4995512;28;20220;-49
2023/07/05 10:15:21;;;;;;;0.10;0.10;;;14.40;57.30;;;;;;5013100;28;20208;-45
2023/07/05 10:17:53;;;;;;;0.10;0.10;;;14.40;57.30;;;;;;5011008;28;20641;-48
2023/07/05 10:20:25;;;;;;;0.10;0.10;;;14.40;57.30;;;;;;5005509;28;20678;-45
2023/07/05 10:23:04;;;;;;;0.10;0.10;;;14.40;57.30;;;;;;4995887;28;20212;-50
2023/07/05 10:25:38;;;;;;;0.10;0.10;;;14.40;57.30;;;;;;4992452;28;20201;-53
2023/07/05 10:28:16;;;;;;;0.10;0.10;;;14.40;57.30;;;;;;5006646;28;20541;-49
2023/07/05 10:30:54;;;;;;;0.10;0.10;;;14.40;57.30;;;;;;5012392;28;20204;-52
2023/07/05 10:33:27;;;;;;;0.00;0.00;;;14.40;57.30;;;;;;5011750;28;20221;-49
2023/07/05 10:36:02;;;;;;;0.10;0.10;;;14.40;57.20;;;;;;5013126;28;20208;-49
2023/07/05 10:38:33;;;;;;;0.10;0.10;;;14.30;57.20;;;;;;5011508;28;20266;-50
2023/07/05 10:41:15;;;;;;;0.10;0.10;;;14.30;57.20;;;;;;4994977;28;20208;-48
2023/07/05 10:43:51;;;;;;;0.00;0.00;;;14.30;57.20;;;;;;5004855;28;20216;-48
2023/07/05 10:46:24;;;;;;;0.10;0.10;;;14.30;57.20;;;;;;5012101;28;20189;-49
2023/07/05 10:48:56;;;;;;;0.10;0.10;;;14.30;57.20;;;;;;5012125;28;20634;-51
2023/07/05 10:51:29;;;;;;;0.10;0.10;;;14.30;57.20;;;;;;5011649;28;20197;-47
2023/07/05 10:54:05;;;;;;;0.10;0.10;;;14.30;57.30;;;;;;5003575;28;20225;-49
2023/07/05 10:56:38;;;;;;;0.00;0.00;;;14.30;57.20;;;;;;4995765;28;20637;-49
2023/07/05 10:59:28;;;;;;;0.10;0.10;;;14.30;57.20;;;;;;4992015;28;20229;-47
2023/07/05 11:02:02;;;;;;;0.10;0.10;;;14.30;57.20;;;;;;5003121;23;20644;-55
2023/07/05 11:04:36;;;;;;;0.10;0.10;;;14.30;57.20;;;;;;4992465;28;20198;-53
2023/07/05 11:07:10;;;;;;;0.10;0.10;;;14.20;57.20;;;;;;4991970;28;20197;-51
2023/07/05 11:09:42;;;;;;;0.10;0.10;;;14.20;57.20;;;;;;4992184;28;20196;-51
2023/07/05 11:12:21;;;;;;;0.10;0.10;;;14.20;57.20;;;;;;4989891;28;20212;-48
2023/07/05 11:14:54;;;;;;;0.10;0.10;;;14.20;57.20;;;;;;4988781;28;20642;-49
2023/07/05 11:17:40;;;;;;;0.08;0.08;;;14.20;57.20;;;;;;4991650;28;20240;-58
2023/07/05 11:20:46;;;;;;;0.10;0.10;;;14.20;57.20;;;;;;4991713;28;20249;-50
2023/07/05 11:23:45;;;;;;;0.10;0.10;;;14.20;57.10;;;;;;4989879;28;20205;-49
2023/07/05 11:26:32;;;;;;;0.10;0.10;;;14.20;57.10;;;;;;4990963;28;20189;-50
2023/07/05 11:29:04;;;;;;;0.10;0.10;;;14.20;57.10;;;;;;4990818;28;20280;-46
2023/07/05 11:32:08;;;;;;;0.10;0.10;;;14.10;57.00;;;;;;4989748;28;20201;-54
2023/07/05 11:34:48;;;;;;;0.10;0.10;;;14.10;57.10;;;;;;4931638;29;20187;-55
2023/07/05 11:37:48;;;;;;;0.10;0.10;;;14.10;57.10;;;;;;4927439;29;20671;-52
2023/07/05 11:40:56;;;;;;;0.10;0.10;;;14.10;57.10;;;;;;4978216;28;20764;-51
2023/07/05 11:43:28;;;;;;;0.10;0.10;;;14.10;57.10;;;;;;4991023;28;20221;-53
2023/07/05 11:45:59;;;;;;;0.10;0.10;;;14.10;57.10;;;;;;4991507;28;20194;-55
2023/07/05 11:48:47;;;;;;;0.10;0.10;;;14.10;57.20;;;;;;4991159;28;20244;-54
2023/07/05 11:51:32;;;;;;;0.10;0.10;;;14.10;57.20;;;;;;4989567;28;20196;-55
2023/07/05 11:54:04;;;;;;;0.10;0.10;;;14.00;57.10;;;;;;4991228;28;20284;-47
2023/07/05 11:56:36;;;;;;;0.10;0.10;;;14.00;57.10;;;;;;4992510;28;20559;-50
2023/07/05 11:59:11;;;;;;;0.10;0.10;;;14.00;57.10;;;;;;4991089;28;20845;-47
2023/07/05 12:01:42;;;;;;;0.10;0.10;;;14.00;57.10;;;;;;4991698;28;20747;-50
2023/07/05 12:04:21;;;;;;;0.17;0.17;;;14.00;57.10;;;;;;4992220;28;20577;-51
2023/07/05 12:06:52;;;;;;;0.10;0.10;;;14.00;57.10;;;;;;4991523;28;20197;-48
2023/07/05 12:09:29;;;;;;;0.08;0.08;;;14.00;57.10;;;;;;4992735;28;20599;-49
2023/07/05 12:12:00;;;;;;;0.10;0.10;;;14.00;57.10;;;;;;4990065;28;20209;-49
2023/07/05 12:14:31;;;;;;;0.10;0.10;;;14.00;57.10;;;;;;4991044;28;20281;-49
2023/07/05 12:17:02;;;;;;;0.10;0.10;;;14.00;57.10;;;;;;4991154;28;20567;-49
2023/07/05 12:19:37;;;;;;;0.10;0.10;;;14.00;57.10;;;;;;4991171;28;20225;-57
2023/07/05 12:22:13;;;;;;;0.10;0.10;;;13.90;57.10;;;;;;4991672;28;20228;-47
2023/07/05 12:24:48;;;;;;;0.10;0.10;;;14.00;57.10;;;;;;4991955;28;20193;-49
2023/07/05 12:27:23;;;;;;;0.10;0.10;;;13.90;57.00;;;;;;4989545;28;20200;-47
2023/07/05 12:29:55;;;;;;;0.10;0.10;;;13.90;57.10;;;;;;4989001;28;20284;-53
2023/07/05 12:32:27;;;;;;;0.10;0.10;;;13.90;57.10;;;;;;4986108;28;20217;-48
2023/07/05 12:35:18;;;;;;;0.10;0.10;;;13.90;57.10;;;;;;4989512;28;20599;-50
2023/07/05 12:37:50;;;;;;;0.10;0.10;;;13.90;57.10;;;;;;4993880;28;20193;-48
2023/07/05 12:40:30;;;;;;;0.10;0.10;;;13.90;57.10;;;;;;4997599;28;20217;-50
2023/07/05 12:43:04;;;;;;;0.10;0.10;;;13.90;57.10;;;;;;4993188;28;20209;-48
2023/07/05 12:45:37;;;;;;;0.10;0.10;;;13.90;57.00;;;;;;4992304;28;20190;-49
2023/07/05 12:48:18;;;;;;;0.10;0.10;;;13.80;57.00;;;;;;4994769;28;20586;-48
2023/07/05 12:50:50;;;;;;;0.10;0.10;;;13.90;57.00;;;;;;4994796;28;20193;-48
2023/07/05 12:53:23;;;;;;;0.10;0.10;;;13.90;57.00;;;;;;4994431;28;20213;-52
2023/07/05 12:55:57;;;;;;;0.10;0.10;;;13.80;56.90;;;;;;4992220;28;20229;-54
2023/07/05 12:58:30;;;;;;;0.10;0.10;;;13.80;57.00;;;;;;4993974;28;20252;-48
2023/07/05 13:01:02;;;;;;;0.10;0.10;;;13.80;57.00;;;;;;4994731;28;20205;-51
2023/07/05 13:03:34;;;;;;;0.10;0.10;;;13.80;57.00;;;;;;4994465;28;20249;-48
2023/07/05 13:06:10;;;;;;;0.10;0.10;;;13.80;57.00;;;;;;4994571;28;20712;-51
2023/07/05 13:08:48;;;;;;;0.10;0.10;;;13.80;56.90;;;;;;4992912;28;20614;-52
2023/07/05 13:11:20;;;;;;;0.10;0.10;;;13.80;57.00;;;;;;4992647;28;20431;-50
2023/07/05 13:14:00;;;;;;;0.10;0.10;;;13.80;57.00;;;;;;4994221;28;20224;-53
2023/07/05 13:16:32;;;;;;;0.10;0.10;;;13.70;56.90;;;;;;4994486;28;20625;-51
2023/07/05 13:19:07;;;;;;;0.10;0.10;;;13.70;56.90;;;;;;4994235;28;20217;-51
2023/07/05 13:21:46;;;;;;;0.10;0.10;;;13.70;56.90;;;;;;4991948;28;20189;-51
2023/07/05 13:24:35;;;;;;;0.00;0.00;;;13.70;57.00;;;;;;4991811;28;20189;-47